This is the latest recevied weather packets stored in our database for station/object RK6MF-10. If no packets are shown the sender has not sent any weather packets the latest 10 day(s).
| Time | Temp. | Humidity | Pressure | Rain* | Wind** | Luminosity | Snow |
|---|---|---|---|---|---|---|---|
| 1777452089 | 18.89° C | 41% | 1015 hPa | - | - | - | - |
| 1777451188 | 17.78° C | 42% | 1015 hPa | - | - | - | - |
| 1777450288 | 16.67° C | 48% | 1015.2 hPa | - | - | - | - |
| 1777449388 | 13.89° C | 56% | 1015.3 hPa | - | - | - | - |
| 1777447588 | 13.89° C | 60% | 1015.4 hPa | - | - | - | - |
| 1777446688 | 12.78° C | 65% | 1015.5 hPa | - | - | - | - |
| 1777445788 | 11.11° C | 76% | 1015.5 hPa | - | - | - | - |
| 1777444888 | 9.44° C | 82% | 1015.2 hPa | - | - | - | - |
| 1777443988 | 8.89° C | 81% | 1015.4 hPa | - | - | - | - |
| 1777443088 | 9.44° C | 78% | 1015.4 hPa | - | - | - | - |
| 1777442187 | 8.89° C | 84% | 1015.2 hPa | - | - | - | - |
| 1777441287 | 8.33° C | 83% | 1015.3 hPa | - | - | - | - |
| 1777440387 | 8.89° C | 78% | 1015.3 hPa | - | - | - | - |
| 1777439487 | 8.89° C | 84% | 1015.1 hPa | - | - | - | - |
| 1777438587 | 8.89° C | 82% | 1015.1 hPa | - | - | - | - |
| 1777437687 | 8.33° C | 84% | 1015 hPa | - | - | - | - |
| 1777436787 | 8.89° C | 84% | 1015.2 hPa | - | - | - | - |
| 1777435886 | 8.33° C | 92% | 1015.1 hPa | - | - | - | - |
| 1777428688 | 5° C | 100% | 1014.2 hPa | - | - | - | - |
| 1777427788 | 5° C | 100% | 1014.2 hPa | - | - | - | - |
| 1777421487 | 6.11° C | 86% | 1014.2 hPa | - | - | - | - |
| 1777410698 | 7.22° C | 65% | 1014.6 hPa | - | - | - | - |
| 1777409798 | 7.22° C | 65% | 1014.5 hPa | - | - | - | - |
| 1777407997 | 7.78° C | 64% | 1014.4 hPa | - | - | - | - |
| 1777404397 | 7.78° C | 62% | 1014.4 hPa | - | - | - | - |
* Rain since midnight (hover to see other rain measurements)
** Current wind speed in m/s (hover to see current wind gust speed)